createdAt,value
2022-12-27T00:01:40.020Z,280.57
2022-12-27T00:04:06.931Z,249.87
2022-12-27T00:06:33.810Z,235.23
2022-12-27T00:09:01.957Z,234.83
2022-12-27T00:11:30.218Z,252.23
2022-12-27T00:14:00.168Z,237.10
2022-12-27T00:16:27.405Z,230.40
2022-12-27T00:18:54.514Z,216.33
2022-12-27T00:21:22.499Z,212.03
2022-12-27T00:23:53.645Z,215.93
2022-12-27T00:26:29.485Z,190.70
2022-12-27T00:28:56.978Z,165.83
2022-12-27T00:31:25.130Z,177.27
2022-12-27T00:33:54.388Z,167.03
2022-12-27T00:36:24.163Z,158.27
2022-12-27T00:38:53.108Z,154.87
2022-12-27T00:41:20.635Z,147.40
2022-12-27T00:43:47.534Z,146.30
2022-12-27T00:46:14.731Z,150.90
2022-12-27T00:48:41.894Z,142.90
2022-12-27T00:51:17.828Z,147.03
2022-12-27T00:53:45.573Z,146.90
2022-12-27T00:56:16.675Z,147.20
2022-12-27T00:58:43.727Z,151.47
2022-12-27T01:01:18.175Z,150.50
2022-12-27T01:03:45.528Z,157.90
2022-12-27T01:06:18.087Z,161.33
2022-12-27T01:08:46.414Z,169.93
2022-12-27T01:11:14.260Z,189.93
2022-12-27T01:13:42.003Z,171.70
2022-12-27T01:16:31.756Z,188.53
2022-12-27T01:18:59.930Z,139.53
2022-12-27T01:21:28.997Z,153.07
2022-12-27T01:23:56.215Z,161.47
2022-12-27T01:26:24.345Z,145.57
2022-12-27T01:28:53.042Z,140.40
2022-12-27T01:31:24.785Z,158.70
2022-12-27T01:33:57.477Z,130.63
2022-12-27T01:36:25.911Z,115.87
2022-12-27T01:38:52.906Z,111.33
2022-12-27T01:41:56.423Z,112.93
2022-12-27T01:44:49.313Z,131.47
2022-12-27T01:47:54.919Z,107.70
2022-12-27T01:50:24.585Z,166.10
2022-12-27T01:53:24.578Z,255.43
2022-12-27T01:56:21.371Z,232.33
2022-12-27T01:58:50.944Z,211.00
2022-12-27T02:01:22.313Z,246.87
2022-12-27T02:04:07.180Z,210.40
2022-12-27T02:06:36.269Z,205.67
2022-12-27T02:09:36.581Z,202.70
2022-12-27T02:12:07.050Z,190.70
2022-12-27T02:14:41.747Z,201.03
2022-12-27T02:17:12.476Z,199.33
2022-12-27T02:19:42.388Z,158.40
2022-12-27T02:22:30.293Z,202.17
2022-12-27T02:25:15.808Z,201.77
2022-12-27T02:28:00.890Z,206.07
2022-12-27T02:30:32.116Z,258.00
2022-12-27T02:32:59.639Z,248.97
2022-12-27T02:38:19.026Z,229.60
2022-12-27T02:41:05.917Z,197.47
2022-12-27T02:43:52.440Z,227.40
2022-12-27T02:46:47.080Z,201.90
2022-12-27T02:49:46.301Z,210.93
2022-12-27T02:53:02.370Z,201.63
2022-12-27T02:56:15.304Z,240.40
2022-12-27T02:58:51.930Z,149.20
2022-12-27T03:01:59.070Z,155.73
2022-12-27T03:04:59.060Z,164.13
2022-12-27T03:07:37.717Z,144.37
2022-12-27T03:10:54.225Z,152.57
2022-12-27T03:13:55.953Z,119.90
2022-12-27T03:16:56.000Z,154.10
2022-12-27T03:19:53.901Z,156.90
2022-12-27T03:25:28.581Z,140.00
2022-12-27T03:28:31.387Z,127.17
2022-12-27T03:31:38.774Z,127.37
2022-12-27T03:34:27.918Z,115.03
2022-12-27T03:37:17.224Z,83.73
2022-12-27T03:39:54.348Z,109.47
2022-12-27T03:42:45.505Z,75.73
2022-12-27T03:45:14.538Z,85.13
2022-12-27T03:47:52.191Z,66.77
2022-12-27T03:50:22.847Z,81.10
2022-12-27T03:53:09.434Z,72.87
2022-12-27T03:55:38.074Z,75.70
2022-12-27T03:58:05.164Z,76.73
2022-12-27T04:00:32.841Z,69.53
2022-12-27T04:02:59.820Z,109.93
2022-12-27T04:05:26.854Z,93.60
2022-12-27T04:08:12.399Z,95.43
2022-12-27T04:10:57.872Z,100.93
2022-12-27T04:13:43.358Z,114.13
2022-12-27T04:16:28.776Z,122.83
2022-12-27T04:19:14.296Z,115.50
2022-12-27T04:21:59.548Z,128.83
2022-12-27T04:24:44.993Z,76.60
2022-12-27T04:27:30.342Z,131.57
2022-12-27T04:30:15.697Z,103.83
2022-12-27T04:33:01.016Z,123.07
2022-12-27T04:35:27.921Z,106.60
2022-12-27T04:37:54.762Z,119.77
2022-12-27T04:40:40.267Z,96.93
2022-12-27T04:43:27.499Z,88.63
2022-12-27T04:48:58.570Z,110.60
2022-12-27T04:51:44.115Z,109.37
2022-12-27T04:54:41.176Z,116.67
2022-12-27T04:57:08.225Z,108.63
2022-12-27T04:59:53.784Z,112.57
2022-12-27T05:02:21.482Z,103.57
2022-12-27T05:04:48.896Z,113.00
2022-12-27T05:07:35.143Z,112.47
2022-12-27T05:10:23.414Z,112.93
2022-12-27T05:13:10.200Z,96.80
2022-12-27T05:15:37.343Z,79.87
2022-12-27T05:18:04.297Z,87.10
2022-12-27T05:20:35.100Z,75.33
2022-12-27T05:23:21.132Z,98.40
2022-12-27T05:25:48.846Z,89.67
2022-12-27T05:28:15.826Z,89.77
2022-12-27T05:30:44.571Z,80.07
2022-12-27T05:33:12.144Z,93.67
2022-12-27T05:35:39.508Z,86.10
2022-12-27T05:38:06.945Z,82.47
2022-12-27T05:40:35.071Z,73.37
2022-12-27T05:43:03.197Z,85.47
2022-12-27T05:45:30.674Z,88.70
2022-12-27T05:48:00.095Z,82.67
2022-12-27T05:50:27.955Z,83.20
2022-12-27T05:53:09.756Z,96.33
2022-12-27T05:55:36.665Z,107.43
2022-12-27T05:58:03.813Z,117.10
2022-12-27T06:00:30.703Z,156.07
2022-12-27T06:02:58.155Z,214.70
2022-12-27T06:05:25.114Z,158.87
2022-12-27T06:07:51.982Z,152.83
2022-12-27T06:10:18.843Z,174.17
2022-12-27T06:12:46.418Z,170.07
2022-12-27T06:15:13.281Z,210.00
2022-12-27T06:17:40.471Z,137.07
2022-12-27T06:20:07.947Z,110.50
2022-12-27T06:22:35.071Z,121.03
2022-12-27T06:25:01.963Z,108.13
2022-12-27T06:27:29.128Z,122.13
2022-12-27T06:29:57.240Z,141.07
2022-12-27T06:32:24.354Z,123.43
2022-12-27T06:34:51.428Z,104.43
2022-12-27T06:37:18.671Z,121.40
2022-12-27T06:39:45.884Z,113.20
2022-12-27T06:44:39.737Z,97.00
2022-12-27T06:47:06.619Z,106.93
2022-12-27T06:49:33.633Z,95.60
2022-12-27T06:52:00.502Z,88.13
2022-12-27T06:54:27.736Z,97.13
2022-12-27T06:56:56.347Z,85.63
2022-12-27T06:59:24.484Z,98.13
2022-12-27T07:01:51.518Z,98.70
2022-12-27T07:04:18.562Z,92.10
2022-12-27T07:06:45.416Z,91.03
2022-12-27T07:09:12.354Z,89.43
2022-12-27T07:11:39.211Z,91.90
2022-12-27T07:14:09.817Z,100.87
2022-12-27T07:16:37.631Z,104.37
2022-12-27T07:19:05.071Z,111.93
2022-12-27T07:21:32.294Z,102.27
2022-12-27T07:23:59.375Z,111.83
2022-12-27T07:26:30.677Z,109.27
2022-12-27T07:29:02.135Z,127.03
2022-12-27T07:31:31.912Z,110.23
2022-12-27T07:34:01.019Z,114.93
2022-12-27T07:36:37.933Z,129.33
2022-12-27T07:39:05.879Z,149.30
2022-12-27T07:41:32.920Z,149.07
2022-12-27T07:44:01.899Z,152.00
2022-12-27T07:46:28.777Z,161.80
2022-12-27T07:48:58.030Z,180.93
2022-12-27T07:51:25.805Z,190.33
2022-12-27T07:53:52.993Z,164.70
2022-12-27T07:56:26.511Z,181.37
2022-12-27T07:58:56.124Z,183.30
2022-12-27T08:01:24.571Z,188.63
2022-12-27T08:03:51.740Z,182.33
2022-12-27T08:06:23.509Z,197.87
2022-12-27T08:08:52.951Z,200.20
2022-12-27T08:11:20.470Z,214.23
2022-12-27T08:13:47.781Z,216.00
2022-12-27T08:16:23.748Z,199.30
2022-12-27T08:18:50.922Z,198.50
2022-12-27T08:21:17.857Z,192.93
2022-12-27T08:23:45.335Z,192.43
2022-12-27T08:26:12.224Z,202.80
2022-12-27T08:28:39.572Z,202.07
2022-12-27T08:31:11.727Z,193.63
2022-12-27T08:33:39.293Z,189.30
2022-12-27T08:36:53.371Z,203.33
2022-12-27T08:38:55.481Z,192.53
2022-12-27T08:41:22.994Z,193.67
2022-12-27T08:43:50.371Z,202.20
2022-12-27T08:46:19.006Z,197.63
2022-12-27T08:48:49.996Z,203.10
2022-12-27T08:51:27.268Z,218.23
2022-12-27T08:54:00.538Z,225.33
2022-12-27T08:56:27.508Z,249.00
2022-12-27T08:58:54.475Z,242.77
2022-12-27T09:01:21.550Z,250.43
2022-12-27T09:03:48.533Z,259.97
2022-12-27T09:06:20.893Z,264.27
2022-12-27T09:08:49.076Z,262.53
2022-12-27T09:11:19.158Z,276.53
2022-12-27T09:13:46.637Z,295.87
2022-12-27T09:16:16.872Z,303.00
2022-12-27T09:18:46.945Z,312.07
2022-12-27T09:21:14.803Z,286.03
2022-12-27T09:23:41.900Z,308.90
2022-12-27T09:26:14.884Z,312.13
2022-12-27T09:28:42.901Z,301.83
2022-12-27T09:31:12.600Z,293.27
2022-12-27T09:33:39.587Z,264.27
2022-12-27T09:36:17.209Z,286.37
2022-12-27T09:38:45.812Z,291.53
2022-12-27T09:42:45.981Z,298.00
2022-12-27T09:44:47.449Z,261.60
2022-12-27T09:47:52.731Z,276.50
2022-12-27T09:50:35.899Z,285.37
2022-12-27T09:53:28.103Z,306.80
2022-12-27T09:55:58.109Z,287.30
2022-12-27T09:58:43.620Z,295.47
2022-12-27T10:01:32.285Z,276.93
2022-12-27T10:04:00.801Z,261.10
2022-12-27T10:06:39.636Z,232.83
2022-12-27T10:09:26.311Z,213.90
2022-12-27T10:11:58.905Z,204.60
2022-12-27T10:15:07.135Z,171.43
2022-12-27T10:17:55.169Z,164.75
2022-12-27T10:23:02.797Z,174.50
2022-12-27T10:25:36.232Z,193.83
2022-12-27T10:28:25.632Z,194.03
2022-12-27T10:30:53.417Z,222.80
2022-12-27T10:33:29.457Z,246.30
2022-12-27T10:35:58.367Z,253.83
2022-12-27T10:38:31.454Z,271.43
2022-12-27T10:41:22.509Z,261.93
2022-12-27T10:43:54.942Z,261.20
2022-12-27T10:46:32.811Z,250.17
2022-12-27T10:49:21.001Z,222.13
2022-12-27T10:51:51.573Z,223.37
2022-12-27T10:54:25.628Z,212.33
2022-12-27T10:56:54.097Z,216.50
2022-12-27T10:59:27.571Z,206.00
2022-12-27T11:02:00.991Z,222.13
2022-12-27T11:04:29.932Z,213.03
2022-12-27T11:07:00.027Z,201.40
2022-12-27T11:09:29.268Z,187.03
2022-12-27T11:12:15.694Z,192.33
2022-12-27T11:14:58.109Z,196.77
2022-12-27T11:17:43.648Z,198.53
2022-12-27T11:20:21.959Z,185.27
2022-12-27T11:23:03.848Z,187.63
2022-12-27T11:25:32.349Z,166.67
2022-12-27T11:28:04.670Z,176.30
2022-12-27T11:30:31.898Z,162.03
2022-12-27T11:33:04.234Z,169.55
2022-12-27T11:35:34.234Z,172.60
2022-12-27T11:38:01.191Z,167.30
2022-12-27T11:40:35.038Z,175.90
2022-12-27T11:43:12.598Z,167.05
2022-12-27T11:45:48.192Z,175.07
2022-12-27T11:48:29.249Z,181.90
2022-12-27T11:51:03.096Z,193.90
2022-12-27T11:54:01.545Z,191.32
2022-12-27T11:56:44.428Z,198.63
2022-12-27T11:59:28.737Z,202.23
2022-12-27T12:02:06.993Z,183.90
2022-12-27T12:04:46.252Z,168.20
2022-12-27T12:07:28.043Z,149.65
2022-12-27T12:10:16.305Z,134.57
2022-12-27T12:13:10.888Z,141.07
2022-12-27T12:15:56.407Z,143.15
2022-12-27T12:18:42.282Z,138.02
2022-12-27T12:21:24.246Z,120.00
2022-12-27T12:24:09.552Z,119.15
2022-12-27T12:26:56.124Z,105.45
2022-12-27T12:29:39.328Z,109.65
2022-12-27T12:32:21.279Z,95.95
2022-12-27T12:34:54.547Z,89.75
2022-12-27T12:37:58.436Z,86.25
2022-12-27T12:40:52.043Z,89.53
2022-12-27T12:43:45.604Z,107.70
2022-12-27T12:46:38.262Z,110.93
2022-12-27T12:49:26.282Z,100.13
2022-12-27T12:52:18.927Z,96.38
2022-12-27T12:55:15.439Z,98.28
2022-12-27T12:57:54.080Z,90.93
2022-12-27T13:00:47.921Z,86.75
2022-12-27T13:03:29.613Z,89.55
2022-12-27T13:06:33.606Z,85.93
2022-12-27T13:09:20.526Z,81.78
2022-12-27T13:12:08.475Z,95.65
2022-12-27T13:15:17.353Z,96.28
2022-12-27T13:29:45.665Z,96.05
2022-12-27T13:32:37.454Z,98.97
2022-12-27T13:35:30.005Z,99.63
2022-12-27T13:38:11.967Z,104.05
2022-12-27T13:41:05.849Z,103.22
2022-12-27T13:43:56.728Z,116.78
2022-12-27T13:46:53.875Z,104.82
2022-12-27T13:55:50.574Z,106.10
2022-12-27T13:58:36.134Z,103.00
2022-12-27T14:01:26.326Z,91.07
2022-12-27T14:04:33.330Z,89.70
2022-12-27T14:07:24.926Z,74.28
2022-12-27T14:10:10.878Z,81.80
2022-12-27T14:13:07.593Z,87.45
2022-12-27T14:15:48.254Z,101.70
2022-12-27T14:18:28.889Z,126.00
2022-12-27T14:21:02.363Z,108.78
2022-12-27T14:23:59.933Z,108.38
2022-12-27T14:26:52.117Z,123.82
2022-12-27T14:29:28.338Z,122.78
2022-12-27T14:32:33.596Z,106.85
2022-12-27T14:35:25.463Z,100.60
2022-12-27T14:38:29.599Z,111.25
2022-12-27T14:41:21.528Z,114.45
2022-12-27T14:44:27.378Z,124.47
2022-12-27T14:47:28.849Z,125.70
2022-12-27T14:50:25.052Z,147.50
2022-12-27T14:53:13.031Z,129.40
2022-12-27T14:55:44.631Z,142.45
2022-12-27T14:58:35.998Z,139.32
2022-12-27T15:01:06.316Z,145.52
2022-12-27T15:03:49.783Z,139.45
2022-12-27T15:06:47.406Z,134.55
2022-12-27T15:09:36.554Z,131.25
2022-12-27T15:12:42.447Z,132.65
2022-12-27T15:15:31.237Z,138.15
2022-12-27T15:18:17.181Z,139.55
2022-12-27T15:20:56.851Z,128.30
2022-12-27T15:23:53.204Z,133.38
2022-12-27T15:26:29.680Z,137.75
2022-12-27T15:29:24.258Z,124.28
2022-12-27T15:32:01.882Z,127.07
2022-12-27T15:34:48.171Z,132.30
2022-12-27T15:37:48.484Z,119.40
2022-12-27T15:40:33.590Z,128.85
2022-12-27T15:43:22.690Z,146.60
2022-12-27T15:46:01.979Z,125.65
2022-12-27T15:48:53.303Z,118.97
2022-12-27T15:51:29.682Z,129.43
2022-12-27T15:54:06.127Z,171.10
2022-12-27T15:56:35.704Z,197.48
2022-12-27T15:59:37.009Z,226.15
2022-12-27T16:02:31.896Z,229.82
2022-12-27T16:05:13.310Z,263.27
2022-12-27T16:07:50.640Z,288.45
2022-12-27T16:10:42.560Z,238.65
2022-12-27T16:13:09.644Z,257.33
2022-12-27T16:15:49.938Z,273.25
2022-12-27T16:18:17.015Z,259.52
2022-12-27T16:23:29.066Z,316.88
2022-12-27T16:26:09.467Z,271.90
2022-12-27T16:28:38.065Z,333.50
2022-12-27T16:31:12.911Z,400.02
2022-12-27T16:33:42.084Z,300.40
2022-12-27T16:36:12.410Z,263.48
2022-12-27T16:38:44.627Z,238.00
2022-12-27T16:41:17.568Z,280.98
2022-12-27T16:43:53.499Z,330.60
2022-12-27T16:46:32.714Z,262.25
2022-12-27T16:49:23.599Z,299.58
2022-12-27T16:52:00.873Z,303.30
2022-12-27T16:57:25.490Z,295.15
2022-12-27T17:00:01.452Z,182.73
2022-12-27T17:02:33.104Z,178.80
2022-12-27T17:05:01.103Z,225.40
2022-12-27T17:07:49.972Z,218.55
2022-12-27T17:10:26.039Z,217.15
2022-12-27T17:13:11.149Z,204.15
2022-12-27T17:15:50.643Z,241.93
2022-12-27T17:18:37.748Z,186.32
2022-12-27T17:21:32.843Z,252.77
2022-12-27T17:24:13.379Z,352.92
2022-12-27T17:26:58.336Z,400.95
2022-12-27T17:29:40.263Z,333.45
2022-12-27T17:32:54.841Z,335.92
2022-12-27T17:35:36.172Z,403.42
2022-12-27T17:38:33.936Z,367.75
2022-12-27T17:42:09.405Z,379.48
2022-12-27T17:44:55.585Z,350.88
2022-12-27T17:47:43.734Z,375.20
2022-12-27T17:50:18.016Z,358.98
2022-12-27T17:53:33.415Z,353.10
2022-12-27T17:56:31.035Z,355.75
2022-12-27T17:59:22.562Z,358.75
2022-12-27T18:01:55.023Z,342.05
2022-12-27T18:04:26.505Z,358.77
2022-12-27T18:06:59.559Z,400.40
2022-12-27T18:09:53.567Z,396.35
2022-12-27T18:12:42.410Z,373.27
2022-12-27T18:15:22.083Z,381.33
2022-12-27T18:17:54.896Z,354.92
2022-12-27T18:20:28.330Z,255.52
2022-12-27T18:23:01.912Z,209.45
2022-12-27T18:25:38.168Z,241.30
2022-12-27T18:28:28.674Z,154.85
2022-12-27T18:31:08.756Z,177.27
2022-12-27T18:33:45.073Z,183.57
2022-12-27T18:36:22.078Z,148.45
2022-12-27T18:38:56.009Z,151.82
2022-12-27T18:41:24.282Z,228.85
2022-12-27T18:43:59.995Z,215.50
2022-12-27T18:46:32.489Z,168.65
2022-12-27T18:49:01.157Z,140.50
2022-12-27T18:51:37.241Z,248.27
2022-12-27T18:54:33.085Z,345.37
2022-12-27T18:57:03.866Z,152.38
2022-12-27T18:59:36.977Z,202.05
2022-12-27T19:02:34.537Z,234.18
2022-12-27T19:05:29.898Z,212.70
2022-12-27T19:08:02.815Z,198.27
2022-12-27T19:10:31.045Z,149.02
2022-12-27T19:12:58.396Z,141.48
2022-12-27T19:15:29.132Z,147.27
2022-12-27T19:18:02.645Z,163.07
2022-12-27T19:20:36.164Z,151.40
2022-12-27T19:23:07.099Z,183.68
2022-12-27T19:25:36.507Z,178.65
2022-12-27T19:28:10.001Z,149.40
2022-12-27T19:30:42.557Z,174.35
2022-12-27T19:33:16.316Z,168.40
2022-12-27T19:35:43.728Z,157.23
2022-12-27T19:38:26.080Z,143.32
2022-12-27T19:41:01.443Z,153.13
2022-12-27T19:46:01.090Z,160.15
2022-12-27T19:48:28.091Z,175.40
2022-12-27T19:50:55.445Z,180.43
2022-12-27T19:53:31.803Z,202.98
2022-12-27T19:55:58.945Z,249.47
2022-12-27T19:58:31.186Z,246.73
2022-12-27T20:00:59.477Z,178.25
2022-12-27T20:03:26.477Z,233.85
2022-12-27T20:06:13.329Z,449.65
2022-12-27T20:08:49.404Z,584.83
2022-12-27T20:11:20.756Z,541.90
2022-12-27T20:13:48.622Z,414.92
2022-12-27T20:16:18.781Z,284.65
2022-12-27T20:18:47.400Z,369.15
2022-12-27T20:21:17.376Z,366.55
2022-12-27T20:23:45.897Z,359.08
2022-12-27T20:26:14.393Z,330.77
2022-12-27T20:28:41.633Z,327.90
2022-12-27T20:31:15.375Z,322.25
2022-12-27T20:33:45.112Z,322.38
2022-12-27T20:36:12.472Z,296.42
2022-12-27T20:38:41.853Z,299.33
2022-12-27T20:41:11.705Z,266.95
2022-12-27T20:43:39.419Z,266.38
2022-12-27T20:46:09.184Z,261.83
2022-12-27T20:48:41.136Z,256.52
2022-12-27T20:51:11.689Z,253.57
2022-12-27T20:53:38.588Z,250.13
2022-12-27T20:56:06.908Z,243.52
2022-12-27T20:58:34.109Z,217.98
2022-12-27T21:01:13.453Z,199.30
2022-12-27T21:03:40.889Z,197.02
2022-12-27T21:06:14.117Z,183.10
2022-12-27T21:08:47.954Z,193.75
2022-12-27T21:11:26.858Z,190.35
2022-12-27T21:13:55.074Z,197.60
2022-12-27T21:16:24.671Z,216.00
2022-12-27T21:18:52.015Z,207.77
2022-12-27T21:21:28.343Z,196.85
2022-12-27T21:23:57.974Z,206.55
2022-12-27T21:26:28.164Z,208.98
2022-12-27T21:28:55.337Z,207.15
2022-12-27T21:31:22.617Z,196.33
2022-12-27T21:33:49.992Z,206.48
2022-12-27T21:36:20.462Z,238.63
2022-12-27T21:38:48.491Z,252.80
2022-12-27T21:41:19.042Z,273.52
2022-12-27T21:43:48.963Z,277.23
2022-12-27T21:46:19.041Z,274.42
2022-12-27T21:48:47.582Z,263.23
2022-12-27T21:51:17.393Z,269.05
2022-12-27T21:53:45.238Z,260.53
2022-12-27T21:56:13.520Z,256.67
2022-12-27T21:58:41.863Z,281.37
2022-12-27T22:01:12.973Z,250.98
2022-12-27T22:03:42.677Z,268.10
2022-12-27T22:06:18.040Z,258.95
2022-12-27T22:08:47.092Z,254.47
2022-12-27T22:11:20.815Z,247.20
2022-12-27T22:13:48.850Z,260.73
2022-12-27T22:16:19.116Z,257.33
2022-12-27T22:18:46.757Z,266.27
2022-12-27T22:21:16.601Z,242.87
2022-12-27T22:23:46.075Z,244.23
2022-12-27T22:26:16.546Z,235.00
2022-12-27T22:28:44.559Z,247.83
2022-12-27T22:31:15.106Z,244.90
2022-12-27T22:33:43.476Z,269.23
2022-12-27T22:36:16.804Z,273.03
2022-12-27T22:38:47.676Z,267.63
2022-12-27T22:41:31.333Z,283.03
2022-12-27T22:44:06.878Z,250.40
2022-12-27T22:49:21.518Z,259.08
2022-12-27T22:51:48.446Z,288.70
2022-12-27T22:54:15.371Z,282.13
2022-12-27T22:56:43.022Z,280.60
2022-12-27T22:59:15.005Z,287.40
2022-12-27T23:01:43.636Z,292.33
2022-12-27T23:04:13.026Z,294.87
2022-12-27T23:06:41.215Z,271.33
2022-12-27T23:09:08.599Z,277.73
2022-12-27T23:11:38.344Z,288.63
2022-12-27T23:14:09.759Z,306.23
2022-12-27T23:16:39.673Z,333.07
2022-12-27T23:19:08.377Z,355.67
2022-12-27T23:21:36.279Z,317.13
2022-12-27T23:24:04.091Z,301.90
2022-12-27T23:26:31.345Z,311.80
2022-12-27T23:28:58.386Z,289.23
2022-12-27T23:31:27.032Z,265.33
2022-12-27T23:33:54.842Z,261.83
2022-12-27T23:36:22.407Z,233.80
2022-12-27T23:38:50.380Z,230.60
2022-12-27T23:41:20.426Z,228.17
2022-12-27T23:43:52.611Z,217.70
2022-12-27T23:46:46.673Z,236.20
2022-12-27T23:49:13.623Z,220.33
2022-12-27T23:51:40.451Z,231.47
2022-12-27T23:54:07.390Z,224.63
2022-12-27T23:56:34.277Z,214.80
2022-12-27T23:59:02.396Z,217.20
